Lowman, New York
Current Conditions -  °F | °C
As of 2:00 PM on Tuesday 27 Jan 2015 (Local Time) from KELM Reporting Station
Broken Clouds Broken Clouds  
Wind Chill: 10°   Ceiling: 2600
Heat Index: 18°   Visibility: 10mi
Dew Point:   Wind: 6mph
Humidity: 65%   Direction: NA
Pressure: 29.88"   Gusts: NA
Location:  42.03°N, 76.72°W
Report Text: KELM 271900Z VRB05KT 10SM BKN026 M08/M13 A2988 RMK AO2 T10781133
Loading
Personal Weather Stations






























Interactive Weather Map New forecast layout! Learn more

10-Day Weather Forecast

Advertisements
Track Severe Weather on mobile